Main page
METAR-TAF:

METAR-TAF

Airports :

Bilbao, Spain

Bilbao Airport

latitude: 43-18N, longitude: 002-56W, elevation: 42 m

Current weather observation

The report was made 42 minutes ago, at 08:30 UTC
Wind 8 kt from the South/Southeast, varying between East and South/Southwest
Temperature 21°C
Humidity 69%
Pressure 1018 hPa
Visibility 10 km or more
Few clouds at a height of 3000 ft

METAR: LEBB 230830Z 15008KT 100V210 9999 FEW030 21/15 Q1018 NOSIG

Time: 11:12 (09:12 UTC)

Forecast

The report was made 4 hours and 12 minutes ago, at 05:00 UTC
Forecast valid from 23 at 06 UTC to 24 at 06 UTC
Wind 9 kt from the Southeast
Visibility 10 km or more
Few clouds at a height of 1000 ft
Temporary
from 23 at 06 UTC to 23 at 13 UTC
Wind 10 kt from the South/Southwest
Temporary
from 23 at 13 UTC to 23 at 18 UTC
Wind 10 kt from the North/Northwest

TAF: LEBB 230500Z 2306/2406 13009KT 9999 FEW010 TX29/2315Z TN12/2306Z TEMPO 2306/2313 21010KT TEMPO 2313/2318 34010KT

Weather observations and forecasts of more than 4000 airports (METAR and TAF reports).

The available stations are represented by yellow and red dots on the map.

Hover mouse over dot to see the name of the station.

Then click to see weather observations and forecasts.

To change the map : click on the green buttons with a black cross to zoom in, on the green button with a dash to zoom out, or on the green arrows for adjacent maps.


METAR-TAF: